Time;durP1;ratioP1;P1;durP2;ratioP2;P2;SDS_P1;SDS_P2;PMS_P1;PMS_P2;Temp;Humidity;BMP_temperature;BMP_pressure;BME280_temperature;BME280_humidity;BME280_pressure;Samples;Min_cycle;Max_cycle;Signal;HPM_P1;HPM_P2
2023/03/07 00:04:01;;;;;;;1.50;1.40;;;;;;;17.26;45.73;99207.81;20459807;29;20048;-92
2023/03/07 00:14:06;;;;;;;1.40;1.30;;;;;;;17.25;45.81;99196.25;20418994;29;20413;-93
2023/03/07 00:24:08;;;;;;;0.90;0.90;;;;;;;17.25;45.89;99196.25;20456159;28;20110;-93
2023/03/07 00:34:09;;;;;;;1.08;0.98;;;;;;;17.08;46.04;99168.56;20431440;29;20382;-93
2023/03/07 00:44:11;;;;;;;0.82;0.82;;;;;;;17.20;45.98;99182.47;20358341;29;20047;-93
2023/03/07 00:54:13;;;;;;;0.82;0.70;;;;;;;17.24;46.02;99177.59;20368875;29;20111;-92
2023/03/07 01:04:15;;;;;;;0.70;0.70;;;;;;;17.24;46.09;99173.06;20439674;29;20143;-93
2023/03/07 01:14:16;;;;;;;0.65;0.60;;;;;;;17.24;46.05;99170.38;20381438;29;20155;-93
2023/03/07 01:24:18;;;;;;;1.02;0.70;;;;;;;17.24;46.02;99173.06;20438168;29;20043;-93
2023/03/07 01:34:20;;;;;;;0.60;0.60;;;;;;;17.24;46.09;99165.00;20336057;29;20112;-92
2023/03/07 01:44:24;;;;;;;0.50;0.50;;;;;;;17.23;46.38;99149.88;20334252;29;20051;-93
2023/03/07 01:54:27;;;;;;;0.60;0.60;;;;;;;17.02;46.17;99114.66;20335598;29;20098;-92
2023/03/07 02:04:39;;;;;;;0.50;0.50;;;;;;;17.23;46.10;99128.34;20336649;29;20150;-93
2023/03/07 02:14:45;;;;;;;0.47;0.47;;;;;;;17.02;46.02;99083.25;20357304;29;20052;-93
2023/03/07 02:24:51;;;;;;;0.95;0.40;;;;;;;17.23;46.21;99106.00;20451521;29;20508;-92
2023/03/07 02:34:53;;;;;;;0.70;0.50;;;;;;;17.23;46.11;99100.59;20430048;28;20119;-92
2023/03/07 02:44:59;;;;;;;0.40;0.40;;;;;;;17.22;46.00;99094.38;20440456;29;20352;-91
2023/03/07 02:55:04;;;;;;;0.52;0.40;;;;;;;17.23;46.04;99096.09;20422783;29;20043;-91
2023/03/07 03:05:09;;;;;;;0.65;0.60;;;;;;;17.04;45.97;99056.16;20418723;29;20036;-95
2023/03/07 03:15:11;;;;;;;0.88;0.60;;;;;;;17.21;46.04;99098.09;20506977;28;20114;-93
2023/03/07 03:25:14;;;;;;;0.70;0.57;;;;;;;17.22;46.04;99088.19;20426104;29;20134;-92
2023/03/07 03:35:17;;;;;;;0.37;0.30;;;;;;;17.21;45.92;99073.88;20415667;29;20389;-93
2023/03/07 03:45:20;;;;;;;0.82;0.52;;;;;;;17.22;45.93;99080.09;20392543;29;20083;-94
2023/03/07 03:55:23;;;;;;;0.90;0.55;;;;;;;17.01;45.82;99053.84;20388040;29;20052;-93
2023/03/07 04:05:25;;;;;;;0.93;0.50;;;;;;;17.21;45.79;99097.25;20344902;29;20056;-94
2023/03/07 04:15:29;;;;;;;0.77;0.47;;;;;;;17.11;45.82;99070.56;20368978;29;20119;-93
2023/03/07 04:25:31;;;;;;;0.95;0.40;;;;;;;17.20;45.73;99085.66;20391146;29;20107;-93
2023/03/07 04:35:33;;;;;;;1.80;0.50;;;;;;;17.04;45.81;99058.84;20416530;29;20110;-92
2023/03/07 04:45:36;;;;;;;0.80;0.45;;;;;;;17.15;45.61;99073.75;20399815;29;20098;-92
2023/03/07 04:55:38;;;;;;;0.90;0.50;;;;;;;17.18;45.63;99076.91;20381391;29;20083;-91
2023/03/07 05:05:40;;;;;;;1.58;0.73;;;;;;;17.17;45.30;99072.56;20368703;29;20059;-92
2023/03/07 05:15:43;;;;;;;1.27;0.50;;;;;;;17.17;45.38;99074.44;20370540;29;20105;-93
2023/03/07 05:25:48;;;;;;;0.60;0.40;;;;;;;17.22;45.42;99072.03;20600828;23;20060;-91
2023/03/07 05:35:50;;;;;;;2.25;0.60;;;;;;;17.38;46.72;99060.34;20704454;23;20059;-93
2023/03/07 05:45:52;;;;;;;3.95;1.17;;;;;;;17.40;50.60;99039.50;20486579;28;20050;-94
2023/03/07 05:55:54;;;;;;;5.85;1.60;;;;;;;17.66;55.29;99057.97;20497336;28;20134;-94
2023/03/07 06:05:56;;;;;;;8.57;2.63;;;;;;;17.77;60.07;99064.78;20504794;28;20537;-96
2023/03/07 06:15:58;;;;;;;9.57;1.90;;;;;;;17.83;62.28;99072.13;20467360;28;20581;-85
2023/03/07 06:26:00;;;;;;;5.53;1.38;;;;;;;17.71;59.07;99043.13;20422656;29;20047;-83
2023/03/07 06:36:07;;;;;;;3.55;1.10;;;;;;;17.92;56.96;99066.69;20452291;28;20051;-94
2023/03/07 06:46:09;;;;;;;2.17;0.80;;;;;;;17.85;55.26;99069.25;20427769;28;20432;-95
2023/03/07 06:56:14;;;;;;;;;;;;;;;18.05;54.47;99104.63;20524406;29;20072;-95
2023/03/07 07:06:17;;;;;;;3.28;1.00;;;;;;;18.07;54.12;99124.13;20525890;28;20345;-96
2023/03/07 07:16:19;;;;;;;2.83;1.00;;;;;;;17.64;53.54;99048.38;20450151;29;20084;-96
2023/03/07 07:26:25;;;;;;;2.70;1.00;;;;;;;18.08;53.23;99128.50;20497390;29;20043;-95
2023/03/07 07:36:27;;;;;;;2.17;0.88;;;;;;;17.43;52.61;99022.13;20480802;29;20048;-94
2023/03/07 07:46:29;;;;;;;1.65;0.60;;;;;;;18.14;52.37;99134.19;20515999;29;20075;-96
2023/03/07 07:56:31;;;;;;;1.58;0.60;;;;;;;18.15;51.99;99143.94;20486325;29;20060;-96
2023/03/07 08:06:33;;;;;;;2.08;0.60;;;;;;;18.16;51.47;99138.38;20516611;29;20115;-96
2023/03/07 08:16:35;;;;;;;1.77;0.90;;;;;;;18.17;51.40;99150.00;20490204;29;20060;-96
2023/03/07 08:26:39;;;;;;;2.65;0.70;;;;;;;18.00;51.11;99123.16;20517341;29;20040;-96
2023/03/07 08:36:41;;;;;;;2.03;0.70;;;;;;;18.18;50.88;99148.97;20500909;29;20044;-93
2023/03/07 08:46:42;;;;;;;2.63;0.82;;;;;;;18.21;50.44;99148.63;20480677;29;20055;-95
2023/03/07 08:56:56;;;;;;;2.42;0.90;;;;;;;17.77;50.22;99080.94;20492269;29;20062;-92
2023/03/07 09:06:58;;;;;;;2.40;0.70;;;;;;;18.09;49.95;99132.03;20443344;28;20409;-91
2023/03/07 09:17:03;;;;;;;2.17;0.77;;;;;;;18.25;49.71;99160.69;20455861;29;20047;-92
2023/03/07 09:27:06;;;;;;;2.38;0.80;;;;;;;18.26;49.45;99173.97;20442025;28;20382;-85
2023/03/07 09:37:07;;;;;;;2.03;0.80;;;;;;;18.30;49.51;99190.63;20394383;29;20114;-92
2023/03/07 09:47:12;;;;;;;2.90;1.00;;;;;;;18.32;49.45;99185.03;20408468;29;20062;-92
2023/03/07 09:57:28;;;;;;;3.38;0.88;;;;;;;18.32;49.33;99191.28;20434784;29;20044;-90
2023/03/07 10:07:30;;;;;;;1.55;0.68;;;;;;;18.30;49.16;99193.31;20422753;29;20043;-91
2023/03/07 10:17:58;;;;;;;2.38;0.80;;;;;;;18.29;49.11;99213.19;20396870;29;20123;-90
2023/03/07 10:28:20;;;;;;;1.42;0.57;;;;;;;18.22;48.70;99199.59;20413061;29;20055;-90
2023/03/07 10:38:28;;;;;;;2.03;0.85;;;;;;;18.31;48.63;99192.28;20444636;29;20150;-90
2023/03/07 10:48:30;;;;;;;1.85;0.68;;;;;;;18.33;48.44;99194.78;20438992;28;20051;-92
2023/03/07 10:58:32;;;;;;;1.52;0.77;;;;;;;18.12;48.49;99169.38;20405515;29;20056;-93
2023/03/07 11:08:35;;;;;;;1.85;0.60;;;;;;;18.36;47.90;99192.59;20437311;29;20051;-96
2023/03/07 11:18:40;;;;;;;1.75;0.70;;;;;;;18.40;47.68;99188.50;20439944;29;20411;-95
2023/03/07 11:28:41;;;;;;;1.45;0.65;;;;;;;18.45;47.31;99192.50;20434669;29;20063;-95
2023/03/07 11:39:15;;;;;;;1.50;0.60;;;;;;;18.47;46.98;99193.16;20437186;29;20325;-96
2023/03/07 11:49:36;;;;;;;0.70;0.50;;;;;;;18.48;46.81;99194.84;20453234;29;20055;-92
2023/03/07 16:19:11;;;;;;;2.67;0.60;;;;;;;18.25;47.82;99304.28;20513160;23;20036;-83
2023/03/07 16:29:15;;;;;;;1.25;0.45;;;;;;;18.19;47.92;99318.47;20495891;28;20066;-87
2023/03/07 16:39:17;;;;;;;0.95;0.40;;;;;;;18.17;47.86;99327.75;20472423;28;20067;-93
2023/03/07 16:49:19;;;;;;;2.50;0.50;;;;;;;15.12;47.92;98899.19;20602800;23;20031;-84
2023/03/07 16:59:23;;;;;;;1.15;0.30;;;;;;;16.79;47.68;99115.34;20539592;23;20546;-94
2023/03/07 17:20:21;;;;;;;1.40;0.30;;;;;;;18.02;48.32;99336.56;21751955;23;20139;-90
2023/03/07 17:30:25;;;;;;;1.48;0.40;;;;;;;18.01;47.74;99359.09;20305562;29;20036;-95
2023/03/07 17:40:27;;;;;;;1.37;0.50;;;;;;;17.92;47.48;99373.59;20308632;29;20049;-95
2023/03/07 17:50:28;;;;;;;1.55;0.70;;;;;;;17.85;47.53;99384.22;20303782;29;20052;-89
2023/03/07 18:00:30;;;;;;;0.77;0.43;;;;;;;17.56;47.24;99374.88;20309089;29;20052;-84
2023/03/07 18:10:32;;;;;;;1.55;0.50;;;;;;;17.72;47.06;99425.16;20284201;29;20121;-92
2023/03/07 18:20:34;;;;;;;0.65;0.30;;;;;;;17.56;46.85;99409.00;20327416;29;20116;-91
2023/03/07 18:30:36;;;;;;;1.08;0.30;;;;;;;17.71;46.58;99436.06;20305236;29;20068;-94
2023/03/07 18:40:38;;;;;;;0.43;0.30;;;;;;;14.24;46.67;98938.78;20591802;23;20196;-94
2023/03/07 18:50:41;;;;;;;0.30;0.25;;;;;;;14.69;46.33;99037.72;20322315;29;20063;-85
2023/03/07 19:00:42;;;;;;;0.63;0.30;;;;;;;13.97;46.20;98911.22;20374513;28;20032;-92
2023/03/07 19:10:44;;;;;;;0.50;0.30;;;;;;;14.05;45.86;98956.75;20381542;29;20068;-94
2023/03/07 19:20:46;;;;;;;0.63;0.40;;;;;;;15.45;45.71;99119.06;20374304;29;20053;-92
2023/03/07 19:30:49;;;;;;;0.30;0.30;;;;;;;17.58;45.73;99490.41;20477479;23;20057;-94
2023/03/07 19:40:55;;;;;;;0.50;0.30;;;;;;;14.42;45.33;99015.50;20279806;29;20043;-88
2023/03/07 19:50:57;;;;;;;0.73;0.30;;;;;;;15.92;45.32;99243.78;20353752;23;20069;-94
2023/03/07 20:01:05;;;;;;;0.25;0.20;;;;;;;17.52;45.06;99484.69;20234747;29;20033;-90
2023/03/07 20:11:13;;;;;;;0.50;0.30;;;;;;;14.12;44.93;99031.03;21153767;23;20104;-93
2023/03/07 20:21:16;;;;;;;0.90;0.30;;;;;;;14.15;44.64;99003.97;20265932;29;20048;-93
2023/03/07 20:31:18;;;;;;;1.92;0.40;;;;;;;13.94;44.52;98977.59;20902992;23;20057;-82
2023/03/07 20:41:22;;;;;;;0.55;0.30;;;;;;;17.45;44.62;99497.13;20381731;23;20044;-94
2023/03/07 20:51:27;;;;;;;1.23;0.40;;;;;;;13.83;44.47;98935.91;20420348;23;20037;-92
2023/03/07 21:01:29;;;;;;;;;;;;;;;17.43;44.13;99509.91;20170890;29;20054;-84
2023/03/07 21:11:31;;;;;;;0.73;0.40;;;;;;;14.41;44.34;99045.94;20155543;29;21420;-95
2023/03/07 21:21:34;;;;;;;0.25;0.25;;;;;;;13.72;44.21;98994.00;20143898;29;20217;-94
2023/03/07 21:31:37;;;;;;;0.28;0.25;;;;;;;13.56;44.08;98964.44;20153851;29;20057;-94
2023/03/07 21:41:39;;;;;;;0.70;0.40;;;;;;;13.49;43.78;98973.09;20133008;29;20045;-93
2023/03/07 21:51:41;;;;;;;0.47;0.25;;;;;;;13.98;43.88;99073.41;21555789;23;20099;-91
2023/03/07 22:01:45;;;;;;;1.38;0.60;;;;;;;13.23;43.60;98929.38;20366048;23;20040;-93
2023/03/07 22:11:46;;;;;;;0.52;0.30;;;;;;;13.42;43.72;98993.41;20298006;29;22584;-94
2023/03/07 22:21:48;;;;;;;0.45;0.28;;;;;;;13.97;43.75;99090.47;20289460;29;20060;-85
2023/03/07 22:42:42;;;;;;;0.32;0.30;;;;;;;14.34;43.34;99109.97;20912325;23;20056;-94
2023/03/07 22:52:44;;;;;;;0.50;0.30;;;;;;;15.12;43.36;99210.09;21232377;23;20062;-94
2023/03/07 23:02:49;;;;;;;0.50;0.30;;;;;;;17.28;43.40;99581.53;20304126;23;20132;-93
2023/03/07 23:12:50;;;;;;;0.43;0.30;;;;;;;15.86;43.41;99334.81;20213185;29;20076;-93
2023/03/07 23:22:53;;;;;;;0.88;0.50;;;;;;;15.07;43.17;99212.44;20224983;29;20056;-93
2023/03/07 23:32:54;;;;;;;0.40;0.20;;;;;;;13.65;43.00;99043.72;20232914;29;20060;-85
2023/03/07 23:42:57;;;;;;;0.73;0.25;;;;;;;15.76;43.08;99319.69;20230637;29;20084;-94
2023/03/07 23:52:59;;;;;;;0.30;0.30;;;;;;;14.14;42.96;99131.59;20224366;29;20053;-93
